Latest Weather Observations for Hillarys Point Boat Harbour

IDW60801

Issued at 10:32 pm WST Sunday 14 February 2016 (issued every 30 minutes, with the page automatically refreshed every 10 minutes)

About weather observations | Map of weather stations | Latest weather observations for WA | Other Formats
Station Details ID: 009265 Name: HILLARYS BOAT HARBOUR NTC AWS Lat: -31.83 Lon: 115.74 Height: 0.0 m
Data from the previous 72 hours. | See also: Recent months for locations in Western Australia
Date/Time
WST
Temp
°C
App
Temp
°C
Dew
Point
Rel
Hum
%
Delta-T
°C
Wind Press
QNH
hPa
Press
MSL
hPa
Rain
since 9 am
mm
Dir
 
Spd
km/h
Gust
km/h
Spd
kts
Gust
kts
14/10:30pm 26.0 - - - - ESE 6 17 3 9 1018.5 1018.5 -
14/10:00pm 26.0 - - - - ESE 4 19 2 10 1018.5 1018.5 -
14/09:30pm 25.9 - - - - SE 2 9 1 5 1018.5 1018.5 -
14/09:00pm 26.2 - - - - SE 2 6 1 3 1018.3 1018.3 -
14/08:30pm 26.7 - - - - ESE 4 11 2 6 1018.1 1018.1 -
14/08:00pm 25.1 - - - - SSE 6 11 3 6 1017.6 1017.6 -
14/07:30pm 24.2 - - - - SSW 6 15 3 8 1017.2 1017.2 -
14/07:00pm 23.8 - - - - S 6 17 3 9 1016.9 1016.9 -
14/06:30pm 23.9 - - - - S 11 24 6 13 1016.8 1016.8 -
14/06:00pm 23.6 - - - - SSW 11 26 6 14 1016.6 1016.6 -
14/05:30pm 24.0 - - - - SSW 11 24 6 13 1016.7 1016.7 -
14/05:00pm 23.6 - - - - SSW 13 33 7 18 1016.6 1016.6 -
14/04:30pm 23.8 - - - - SSW 19 32 10 17 1016.7 1016.7 -
14/04:00pm 23.6 - - - - SSW 20 35 11 19 1016.8 1016.8 -
14/03:30pm 23.8 - - - - SSW 19 35 10 19 1017.0 1017.0 -
14/03:00pm 24.3 - - - - SSW 17 30 9 16 1017.1 1017.1 -
14/02:30pm 24.7 - - - - SSW 19 30 10 16 1017.4 1017.4 -
14/02:00pm 29.4 - - - - SE 7 17 4 9 1017.9 1017.9 -
14/01:30pm 28.6 - - - - SSE 7 20 4 11 1018.1 1018.1 -
14/01:00pm 27.3 - - - - SSE 11 24 6 13 1018.4 1018.4 -
14/12:30pm 26.7 - - - - SE 11 30 6 16 1018.9 1018.9 -
14/12:00pm 26.5 - - - - SE 7 24 4 13 1019.4 1019.4 -
14/11:30am 25.2 - - - - SE 7 20 4 11 1019.7 1019.7 -
14/11:00am 25.3 - - - - ESE 7 20 4 11 1019.9 1019.9 -
14/10:30am 24.1 - - - - E 13 26 7 14 1020.3 1020.3 -
14/10:00am 23.0 - - - - E 9 20 5 11 1020.5 1020.5 -
14/09:30am 21.6 - - - - E 15 30 8 16 1020.6 1020.6 -
14/09:00am 21.3 - - - - E 11 24 6 13 1020.9 1020.9 -
14/08:30am 20.0 - - - - E 7 24 4 13 1021.2 1021.2 -
14/08:00am 18.9 - - - - E 13 33 7 18 1021.3 1021.3 -
14/07:30am 18.7 - - - - E 15 32 8 17 1021.4 1021.4 -
14/07:00am 18.2 - - - - E 9 26 5 14 1021.3 1021.3 -
14/06:30am 17.7 - - - - E 13 24 7 13 1021.1 1021.1 -
14/06:00am 17.4 - - - - E 13 28 7 15 1020.7 1020.7 -
14/05:30am 17.4 - - - - E 15 32 8 17 1020.6 1020.6 -
14/05:00am 17.6 - - - - E 9 26 5 14 1020.2 1020.2 -
14/04:30am 17.7 - - - - E 7 20 4 11 1019.9 1019.9 -
14/04:00am 18.0 - - - - E 11 26 6 14 1019.2 1019.2 -
14/03:30am 18.5 - - - - E 13 39 7 21 1018.8 1018.8 -
14/03:00am 18.9 - - - - E 15 35 8 19 1018.6 1018.6 -
14/02:30am 19.5 - - - - E 9 24 5 13 1018.6 1018.6 -
14/02:00am 20.2 - - - - E 11 26 6 14 1018.7 1018.7 -
14/01:30am 21.0 - - - - E 13 28 7 15 1018.6 1018.6 -
14/01:00am 21.8 - - - - ESE 6 20 3 11 1018.8 1018.8 -
14/12:30am 22.6 - - - - ESE 7 20 4 11 1018.7 1018.7 -
14/12:00am 23.4 - - - - ESE 6 17 3 9 1018.8 1018.8 -
 
Date/Time
WST
Temp
°C
App
Temp
°C
Dew
Point
Rel
Hum
%
Delta-T
°C
Wind Press
QNH
hPa
Press
MSL
hPa
Rain
since 9 am
mm
Dir
 
Spd
km/h
Gust
km/h
Spd
kts
Gust
kts
13/11:30pm 23.7 - - - - ESE 4 9 2 5 1018.6 1018.6 -
13/11:00pm 24.1 - - - - ESE 4 9 2 5 1018.5 1018.5 -
13/10:30pm 24.5 - - - - ESE 4 17 2 9 1018.9 1018.9 -
13/10:00pm 23.9 - - - - SE 4 9 2 5 1018.8 1018.8 -
13/09:30pm 23.5 - - - - SE 6 13 3 7 1018.8 1018.8 -
13/09:00pm 23.9 - - - - S 7 19 4 10 1018.5 1018.5 -
13/08:30pm 23.6 - - - - S 6 19 3 10 1018.4 1018.4 -
13/08:00pm 23.6 - - - - SSW 11 26 6 14 1018.2 1018.2 -
13/07:30pm 23.3 - - - - SSW 9 26 5 14 1017.7 1017.7 -
13/07:00pm 23.3 - - - - S 11 24 6 13 1017.4 1017.4 -
13/06:30pm 23.0 - - - - SSW 15 32 8 17 1017.2 1017.2 -
13/06:00pm 23.2 - - - - SSW 17 35 9 19 1017.1 1017.1 -
13/05:30pm 23.0 - - - - SSW 15 30 8 16 1017.1 1017.1 -
13/05:00pm 22.9 - - - - SSW 19 39 10 21 1017.2 1017.2 -
13/04:30pm 22.8 - - - - SSW 22 41 12 22 1017.3 1017.3 -
13/04:00pm 22.6 - - - - SSW 20 37 11 20 1017.1 1017.1 -
13/03:30pm 23.0 - - - - SSW 22 39 12 21 1017.4 1017.4 -
13/03:00pm 22.7 - - - - SSW 24 41 13 22 1017.6 1017.6 -
13/02:30pm 22.8 - - - - SSW 22 39 12 21 1017.8 1017.8 -
13/02:00pm 23.0 - - - - SSW 20 33 11 18 1018.1 1018.1 -
13/01:30pm 23.5 - - - - SSW 20 35 11 19 1018.4 1018.4 -
13/01:00pm 23.1 - - - - SW 20 37 11 20 1018.7 1018.7 -
13/12:30pm 24.4 - - - - SSW 15 28 8 15 1019.0 1019.0 -
13/12:00pm 26.2 - - - - S 7 28 4 15 1019.4 1019.4 -
13/11:30am 24.4 - - - - S 9 19 5 10 1019.7 1019.7 -
13/11:00am 25.3 - - - - SSE 7 15 4 8 1019.9 1019.9 -
13/10:30am 24.3 - - - - S 9 19 5 10 1020.2 1020.2 -
13/10:00am 23.2 - - - - SE 9 20 5 11 1020.5 1020.5 -
13/09:30am 22.8 - - - - SSE 11 24 6 13 1020.6 1020.6 -
13/09:00am 22.5 - - - - SSE 11 24 6 13 1020.9 1020.9 -
13/08:30am 22.2 - - - - ESE 6 13 3 7 1020.8 1020.8 -
13/08:00am 21.7 - - - - SSE 9 19 5 10 1020.7 1020.7 -
13/07:30am 21.1 - - - - SSE 11 20 6 11 1020.8 1020.8 -
13/07:00am 20.9 - - - - SSE 7 17 4 9 1020.5 1020.5 -
13/06:30am 20.7 - - - - SSE 7 17 4 9 1020.3 1020.3 -
13/06:00am 20.6 - - - - SSE 9 22 5 12 1019.8 1019.8 -
13/05:30am 20.1 - - - - SSE 11 20 6 11 1019.5 1019.5 -
13/05:00am 20.2 - - - - S 7 19 4 10 1019.1 1019.1 -
13/04:30am 20.1 - - - - S 9 20 5 11 1018.8 1018.8 -
13/04:00am 20.4 - - - - S 7 20 4 11 1018.5 1018.5 -
13/03:30am 20.8 - - - - S 7 17 4 9 1018.1 1018.1 -
13/03:00am 21.2 - - - - S 7 20 4 11 1017.8 1017.8 -
13/02:30am 21.5 - - - - S 9 22 5 12 1017.6 1017.6 -
13/02:00am 21.6 - - - - S 9 20 5 11 1017.4 1017.4 -
13/01:30am 22.0 - - - - S 9 24 5 13 1017.2 1017.2 -
13/01:00am 22.1 - - - - S 9 26 5 14 1017.3 1017.3 -
13/12:30am 22.4 - - - - S 7 20 4 11 1017.2 1017.2 -
13/12:00am 22.6 - - - - S 9 22 5 12 1017.3 1017.3 -
 
Date/Time
WST
Temp
°C
App
Temp
°C
Dew
Point
Rel
Hum
%
Delta-T
°C
Wind Press
QNH
hPa
Press
MSL
hPa
Rain
since 9 am
mm
Dir
 
Spd
km/h
Gust
km/h
Spd
kts
Gust
kts
12/11:30pm 22.8 - - - - S 11 28 6 15 1017.2 1017.2 -
12/11:00pm 22.9 - - - - SSW 15 28 8 15 1017.2 1017.2 -
12/10:30pm 23.0 - - - - SSW 15 33 8 18 1017.2 1017.2 -
12/10:00pm 23.3 - - - - SSW 15 35 8 19 1017.3 1017.3 -
12/09:30pm 23.1 - - - - SSW 15 32 8 17 1017.1 1017.1 -
12/09:00pm 22.9 - - - - SSW 15 30 8 16 1017.1 1017.1 -
12/08:30pm 22.9 - - - - SSW 17 33 9 18 1017.0 1017.0 -
12/08:00pm 22.7 - - - - SSW 13 32 7 17 1016.8 1016.8 -
12/07:30pm 22.8 - - - - SSW 13 30 7 16 1016.5 1016.5 -
12/07:00pm 23.0 - - - - SSW 15 33 8 18 1016.2 1016.2 -
12/06:30pm 23.0 - - - - SSW 19 33 10 18 1016.2 1016.2 -
12/06:00pm 23.0 - - - - SSW 20 35 11 19 1016.0 1016.0 -
12/05:30pm 23.3 - - - - SSW 17 30 9 16 1015.8 1015.8 -
12/05:00pm 23.0 - - - - SSW 20 37 11 20 1015.8 1015.8 -
12/04:30pm 22.8 - - - - SSW 20 37 11 20 1015.6 1015.6 -
12/04:00pm 22.8 - - - - SSW 22 39 12 21 1015.5 1015.5 -
12/03:30pm 23.1 - - - - SSW 19 33 10 18 1015.7 1015.7 -
12/03:00pm 23.0 - - - - SSW 20 35 11 19 1015.7 1015.7 -
12/02:30pm 23.3 - - - - SSW 15 32 8 17 1015.9 1015.9 -
12/02:00pm 23.2 - - - - SSW 17 30 9 16 1016.0 1016.0 -
12/01:30pm 22.8 - - - - SSW 22 37 12 20 1016.2 1016.2 -
12/01:00pm 22.8 - - - - SSW 19 32 10 17 1016.4 1016.4 -
12/12:30pm 23.1 - - - - SSW 19 32 10 17 1016.6 1016.6 -
12/12:00pm 23.1 - - - - SSW 17 28 9 15 1016.8 1016.8 -
12/11:30am 23.2 - - - - SSW 13 24 7 13 1016.9 1016.9 -
12/11:00am 23.0 - - - - SSW 15 30 8 16 1017.0 1017.0 -
12/10:30am 22.9 - - - - SSW 15 26 8 14 1017.1 1017.1 -
12/10:00am 22.8 - - - - SSW 13 24 7 13 1017.2 1017.2 -
12/09:30am 23.0 - - - - SSW 13 22 7 12 1017.1 1017.1 -
12/09:00am 22.9 - - - - SSW 9 19 5 10 1017.1 1017.1 -
12/08:30am 22.8 - - - - SSW 7 17 4 9 1017.0 1017.0 -
12/08:00am 22.2 - - - - S 6 15 3 8 1016.9 1016.9 -
12/07:30am 21.8 - - - - S 7 17 4 9 1016.7 1016.7 -
12/07:00am 21.3 - - - - S 7 15 4 8 1016.5 1016.5 -
12/06:30am 21.1 - - - - SSE 9 19 5 10 1016.2 1016.2 -
12/06:00am 21.0 - - - - SSE 7 15 4 8 1015.8 1015.8 -
12/05:30am 21.2 - - - - SSE 6 13 3 7 1015.5 1015.5 -
12/05:00am 21.7 - - - - SSE 6 11 3 6 1015.0 1015.0 -
12/04:30am 22.2 - - - - S 7 17 4 9 1014.6 1014.6 -
12/04:00am 22.4 - - - - SSW 9 26 5 14 1014.3 1014.3 -
12/03:30am 22.5 - - - - SSW 11 22 6 12 1014.1 1014.1 -
12/03:00am 22.8 - - - - S 7 24 4 13 1013.8 1013.8 -
12/02:30am 22.9 - - - - S 6 15 3 8 1013.6 1013.6 -
12/02:00am 22.9 - - - - SSW 9 24 5 13 1013.3 1013.3 -
12/01:30am 22.9 - - - - SSW 13 26 7 14 1013.3 1013.3 -
12/01:00am 23.0 - - - - SSW 11 20 6 11 1013.5 1013.5 -
12/12:30am 23.1 - - - - SSW 9 20 5 11 1013.4 1013.4 -
12/12:00am 23.2 - - - - SSW 9 24 5 13 1013.5 1013.5 -
 
Date/Time
WST
Temp
°C
App
Temp
°C
Dew
Point
Rel
Hum
%
Delta-T
°C
Wind Press
QNH
hPa
Press
MSL
hPa
Rain
since 9 am
mm
Dir
 
Spd
km/h
Gust
km/h
Spd
kts
Gust
kts
11/11:30pm 23.2 - - - - SSW 11 20 6 11 1013.6 1013.6 -
11/11:00pm 22.9 - - - - SSW 17 28 9 15 1013.6 1013.6 -

Other Formats:

Comma delimited format used in spreadsheet applications
http://www.bom.gov.au/fwo/IDW60801/IDW60801.95605.axf

JavaScript Object Notation format (JSON) in row-major order
http://www.bom.gov.au/fwo/IDW60801/IDW60801.95605.json